Аэропорт: Нерюнгри (Чульман). Нерюнгри

ICAO: UELL

METAR:
2013/07/19 07:30
UELL 190730Z 20004G07MPS 9999 BKN022CB OVC200 17/15 Q1004 NOSIG RMK QFE679 08290250
METAR:
2013/07/19 06:21
TAF TAF UELL 190435Z 1906/2006 19006G11MPS 9999 -SHRA SCT010 OVC018CB 
      TEMPO 1906/1915 VRB12MPS 2000 TSRA BR BKN004 OVC015CB 
      TEMPO 1918/1924 VRB02MPS 0600 FG VV003